Terminal Aerodrome Forecast
Issued by NWS Central Illinois

Home | Current Version | Previous Version | Text Only | Print | Product List | Glossary On
Versions: 1 2 3 4 5 6 7 8 9 10 11 12 13 14 15 16 17 18 19 20 21 22 23 24 25 26
186
FTUS43 KILX 261140
TAFPIA
TAF
KPIA 261140Z 2612/2712 34004KT P6SM VCSH SCT040 BKN100
     FM261600 05006KT P6SM BKN045
     FM270100 13004KT P6SM VCSH BKN050
     FM270700 14004KT P6SM VCTS BKN040CB=

USA.gov is the U.S. government's official web portal to all federal, state and local government web resources and services.